Fort Davis, TX

7:51 AM CST on January 16, 2017 (GMT -0600)
Limpia Crossing | | Change Station

Elev 5217 ft 30.61 °N, 103.99 °W | Updated 9 hours ago

Clear
Clear
43.6 °F
Feels Like 44 °F
N
3.0
Wind Variable Wind from WNW
Gusts 12.0 mph

Today
High -- | Low -- °F
--% Chance of Precip.
Yesterday
High -- | Low -- °F
Precip. -- in
Pressure 30.00 in
Visibility 10.0 miles
Clouds Clear
Windchill 44 °F
Dew Point 33 °F
Humidity 67%
Rainfall 0.07 in
Snow Depth Not available.
7:53 AM 6:18 PM
Waning Gibbous, 81% visible
METAR KMRF 161256Z AUTO 17006KT 10SM CLR 02/M01 A3002 RMK AO2 SLP158 T00171011 FZRANO
Pressure 30.00 in
Visibility 10.0 miles
Clouds Clear
Windchill 44 °F
Dew Point 33 °F
Humidity 67%
Rainfall 0.07 in
Snow Depth Not available.
7:53 AM 6:18 PM
Waning Gibbous, 81% visible
METAR KMRF 161256Z AUTO 17006KT 10SM CLR 02/M01 A3002 RMK AO2 SLP158 T00171011 FZRANO

Get Your Daily Forecast Email!

Thanks for signing up!

Be on the lookout for a verification email in your inbox.

You'll start receiving the daily forecast at 8 AM.

×

10-Day Weather Forecast

Almanac

Astronomy

Jan. 16, 2017 Rise Set
Actual Time
Civil Twilight
Nautical Twilight
Astronomical Twilight
Moon
Length of Visible Light
Length of Day
Tomorrow will be .
, % of the Moon is Illuminated

Today's Extremes

State Highs State Lows

Community

WunderPhotos

Upload Photos

1,962,540 photos uploaded!

WunderBlog® & News

Nearby

Air Quality

  Air Quality AQ Index Pollutant
Not available.

Snow Depth

Station Depth Elevation

Earthquake Activity

City Distance Mag. Time & Date
Minimum magnitude displayed is 2.5.

Coastal Water Temperatures

Place Temperature

Stations

Nearby Weather Stations

Station Location Temp. Windchill Dew Point Humidity Wind Precip. Elev Updated Type
                   

Watches & Warnings

There are currently no watches in effect.